createdAt,value
2019-04-10T00:00:35.063Z,16.14
2019-04-10T00:03:02.160Z,16.10
2019-04-10T00:05:29.096Z,16.00
2019-04-10T00:07:56.052Z,15.96
2019-04-10T00:10:23.601Z,15.93
2019-04-10T00:12:50.656Z,15.95
2019-04-10T00:15:18.483Z,15.92
2019-04-10T00:17:45.785Z,15.91
2019-04-10T00:20:12.653Z,15.90
2019-04-10T00:22:39.895Z,15.97
2019-04-10T00:25:06.852Z,16.01
2019-04-10T00:27:34.677Z,16.01
2019-04-10T00:30:02.925Z,15.98
2019-04-10T00:32:30.033Z,15.93
2019-04-10T00:34:58.181Z,15.92
2019-04-10T00:37:28.514Z,15.96
2019-04-10T00:39:54.963Z,15.90
2019-04-10T00:42:22.908Z,15.90
2019-04-10T00:44:50.369Z,15.96
2019-04-10T00:47:17.281Z,15.94
2019-04-10T00:49:44.578Z,15.96
2019-04-10T00:52:12.116Z,15.97
2019-04-10T00:54:39.299Z,15.93
2019-04-10T00:57:07.304Z,15.90
2019-04-10T00:59:34.714Z,15.91
2019-04-10T01:02:02.524Z,15.81
2019-04-10T01:04:30.630Z,15.87
2019-04-10T01:06:57.896Z,15.93
2019-04-10T01:09:25.615Z,15.98
2019-04-10T01:11:52.644Z,15.95
2019-04-10T01:14:19.874Z,15.96
2019-04-10T01:16:47.389Z,15.91
2019-04-10T01:19:15.443Z,15.89
2019-04-10T01:21:42.581Z,15.91
2019-04-10T01:24:09.462Z,15.92
2019-04-10T01:26:37.093Z,15.95
2019-04-10T01:29:05.107Z,15.94
2019-04-10T01:31:33.401Z,15.95
2019-04-10T01:34:01.070Z,15.95
2019-04-10T01:36:29.019Z,15.96
2019-04-10T01:38:56.080Z,15.94
2019-04-10T01:41:23.818Z,15.93
2019-04-10T01:43:51.311Z,15.84
2019-04-10T01:46:18.256Z,15.76
2019-04-10T01:48:45.158Z,15.69
2019-04-10T01:51:12.031Z,15.65
2019-04-10T01:53:39.193Z,15.63
2019-04-10T01:56:20.384Z,15.62
2019-04-10T01:58:35.045Z,15.64
2019-04-10T02:01:02.273Z,15.57
2019-04-10T02:03:29.879Z,15.63
2019-04-10T02:05:57.989Z,15.45
2019-04-10T02:08:25.784Z,15.36
2019-04-10T02:10:53.433Z,15.48
2019-04-10T02:13:21.393Z,15.57
2019-04-10T02:15:48.659Z,15.59
2019-04-10T02:18:15.521Z,15.62
2019-04-10T02:20:43.154Z,15.65
2019-04-10T02:23:10.153Z,15.67
2019-04-10T02:25:37.009Z,15.70
2019-04-10T02:28:04.883Z,15.74
2019-04-10T02:30:32.621Z,15.79
2019-04-10T02:33:02.293Z,15.77
2019-04-10T02:35:29.731Z,15.77
2019-04-10T02:38:00.595Z,15.67
2019-04-10T02:40:25.851Z,15.65
2019-04-10T02:42:52.724Z,15.63
2019-04-10T02:45:19.708Z,15.56
2019-04-10T02:47:47.435Z,15.50
2019-04-10T02:50:16.455Z,15.54
2019-04-10T02:52:45.744Z,15.47
2019-04-10T02:55:14.330Z,15.44
2019-04-10T02:57:41.593Z,15.55
2019-04-10T03:00:10.417Z,15.59
2019-04-10T03:02:38.634Z,15.59
2019-04-10T03:05:07.159Z,15.67
2019-04-10T03:07:35.783Z,15.77
2019-04-10T03:10:15.208Z,15.75
2019-04-10T03:12:32.327Z,15.79
2019-04-10T03:15:01.000Z,15.84
2019-04-10T03:17:28.369Z,15.91
2019-04-10T03:19:56.090Z,16.02
2019-04-10T03:22:23.151Z,16.07
2019-04-10T03:24:50.674Z,16.10
2019-04-10T03:27:19.179Z,16.08
2019-04-10T03:29:46.428Z,16.05
2019-04-10T03:32:14.674Z,15.95
2019-04-10T03:34:43.868Z,15.93
2019-04-10T03:37:11.782Z,15.95
2019-04-10T03:39:38.716Z,15.98
2019-04-10T03:42:06.503Z,15.92
2019-04-10T03:44:34.617Z,15.93
2019-04-10T03:47:02.830Z,15.88
2019-04-10T03:49:29.882Z,15.81
2019-04-10T03:51:56.855Z,15.85
2019-04-10T03:54:23.943Z,15.90
2019-04-10T03:56:51.224Z,15.92
2019-04-10T03:59:18.468Z,15.92
2019-04-10T04:01:45.361Z,15.93
2019-04-10T04:04:13.338Z,15.88
2019-04-10T04:06:40.361Z,15.85
2019-04-10T04:09:11.239Z,15.77
2019-04-10T04:11:36.165Z,15.71
2019-04-10T04:14:04.034Z,15.62
2019-04-10T04:16:31.110Z,15.61
2019-04-10T04:18:58.052Z,15.68
2019-04-10T04:21:25.847Z,15.70
2019-04-10T04:23:53.254Z,15.67
2019-04-10T04:26:21.252Z,15.68
2019-04-10T04:28:49.360Z,15.69
2019-04-10T04:31:16.410Z,15.70
2019-04-10T04:33:44.770Z,15.69
2019-04-10T04:36:12.315Z,15.71
2019-04-10T04:38:39.637Z,15.73
2019-04-10T04:41:06.864Z,15.71
2019-04-10T04:43:33.920Z,15.68
2019-04-10T04:46:01.243Z,15.67
2019-04-10T04:48:28.411Z,15.67
2019-04-10T04:50:56.495Z,15.67
2019-04-10T04:53:23.702Z,15.71
2019-04-10T04:55:51.427Z,15.68
2019-04-10T04:58:18.518Z,15.66
2019-04-10T05:00:45.944Z,15.61
2019-04-10T05:03:13.084Z,15.58
2019-04-10T05:05:39.945Z,15.52
2019-04-10T05:08:07.424Z,15.49
2019-04-10T05:10:35.749Z,15.54
2019-04-10T05:13:02.684Z,15.54
2019-04-10T05:15:29.632Z,15.59
2019-04-10T05:17:57.625Z,15.60
2019-04-10T05:20:29.083Z,15.61
2019-04-10T05:22:54.803Z,15.58
2019-04-10T05:25:22.127Z,15.46
2019-04-10T05:27:49.083Z,15.47
2019-04-10T05:30:16.433Z,15.42
2019-04-10T05:32:44.503Z,15.55
2019-04-10T05:35:11.602Z,15.70
2019-04-10T05:37:39.986Z,15.82
2019-04-10T05:40:07.681Z,15.85
2019-04-10T05:42:35.263Z,15.94
2019-04-10T05:45:03.132Z,16.02
2019-04-10T05:47:30.337Z,16.13
2019-04-10T05:49:57.718Z,16.32
2019-04-10T05:52:24.913Z,16.55
2019-04-10T05:54:51.909Z,16.69
2019-04-10T05:57:18.828Z,16.63
2019-04-10T05:59:46.045Z,16.56
2019-04-10T06:02:13.855Z,16.46
2019-04-10T06:04:41.232Z,16.38
2019-04-10T06:07:08.622Z,16.42
2019-04-10T06:09:36.586Z,16.52
2019-04-10T06:12:04.142Z,16.68
2019-04-10T06:14:32.473Z,16.73
2019-04-10T06:17:02.386Z,16.67
2019-04-10T06:19:28.797Z,16.80
2019-04-10T06:21:56.591Z,16.80
2019-04-10T06:24:24.514Z,16.82
2019-04-10T06:26:52.022Z,16.80
2019-04-10T06:29:19.235Z,16.78
2019-04-10T06:31:47.371Z,16.70
2019-04-10T06:34:16.151Z,16.99
2019-04-10T06:36:43.795Z,17.12
2019-04-10T06:39:12.850Z,17.58
2019-04-10T06:41:41.045Z,17.83
2019-04-10T06:44:08.112Z,18.00
2019-04-10T06:46:37.614Z,18.23
2019-04-10T06:49:05.556Z,18.50
2019-04-10T06:51:35.508Z,18.67
2019-04-10T06:54:07.031Z,18.92
2019-04-10T06:56:31.304Z,19.39
2019-04-10T06:58:58.683Z,19.70
2019-04-10T07:01:38.409Z,19.81
2019-04-10T07:04:02.081Z,20.17
2019-04-10T07:06:36.601Z,20.62
2019-04-10T07:08:53.378Z,20.87
2019-04-10T07:11:22.166Z,21.09
2019-04-10T07:13:49.106Z,21.29
2019-04-10T07:16:16.167Z,21.50
2019-04-10T07:18:45.861Z,21.72
2019-04-10T07:21:12.706Z,21.70
2019-04-10T07:23:40.734Z,21.85
2019-04-10T07:26:08.089Z,22.04
2019-04-10T07:28:36.637Z,22.35
2019-04-10T07:31:08.108Z,22.56
2019-04-10T07:33:32.932Z,22.63
2019-04-10T07:36:04.308Z,22.65
2019-04-10T07:38:28.850Z,22.99
2019-04-10T07:40:56.823Z,23.22
2019-04-10T07:43:27.168Z,23.32
2019-04-10T07:45:56.684Z,22.95
2019-04-10T07:48:21.068Z,22.47
2019-04-10T07:50:48.921Z,22.13
2019-04-10T07:53:16.882Z,23.11
2019-04-10T07:55:56.660Z,23.16
2019-04-10T07:58:13.213Z,22.48
2019-04-10T08:00:40.746Z,21.70
2019-04-10T08:03:09.325Z,21.61
2019-04-10T08:05:37.410Z,22.29
2019-04-10T08:08:05.161Z,23.00
2019-04-10T08:10:32.733Z,23.20
2019-04-10T08:13:00.342Z,23.60
2019-04-10T08:15:27.656Z,23.80
2019-04-10T08:17:56.056Z,23.27
2019-04-10T08:20:24.017Z,23.42
2019-04-10T08:22:51.372Z,23.61
2019-04-10T08:25:19.526Z,23.56
2019-04-10T08:27:47.055Z,23.19
2019-04-10T08:30:15.114Z,22.87
2019-04-10T08:32:53.511Z,22.38
2019-04-10T08:35:11.229Z,21.76
2019-04-10T08:37:39.093Z,21.19
2019-04-10T08:40:07.363Z,20.78
2019-04-10T08:42:35.198Z,20.51
2019-04-10T08:45:03.011Z,20.45
2019-04-10T08:47:31.328Z,20.33
2019-04-10T08:49:58.726Z,20.11
2019-04-10T08:52:25.617Z,19.73
2019-04-10T08:54:53.222Z,19.61
2019-04-10T08:57:21.393Z,19.36
2019-04-10T08:59:48.982Z,19.08
2019-04-10T09:02:16.038Z,19.06
2019-04-10T09:04:43.373Z,19.25
2019-04-10T09:07:11.629Z,19.39
2019-04-10T09:09:39.459Z,19.71
2019-04-10T09:12:07.282Z,19.85
2019-04-10T09:14:35.052Z,19.52
2019-04-10T09:17:02.848Z,18.95
2019-04-10T09:19:30.021Z,18.67
2019-04-10T09:21:57.585Z,18.52
2019-04-10T09:24:25.767Z,18.53
2019-04-10T09:26:52.905Z,18.46
2019-04-10T09:29:21.935Z,18.39
2019-04-10T09:31:48.464Z,18.50
2019-04-10T09:34:15.843Z,18.69
2019-04-10T09:36:43.734Z,18.60
2019-04-10T09:39:11.603Z,18.51
2019-04-10T09:41:38.653Z,18.49
2019-04-10T09:44:06.609Z,18.51
2019-04-10T09:46:33.508Z,18.50
2019-04-10T09:49:00.687Z,18.40
2019-04-10T09:51:27.945Z,18.31
2019-04-10T09:53:55.310Z,18.43
2019-04-10T09:56:22.404Z,18.55
2019-04-10T09:58:49.381Z,18.61
2019-04-10T10:01:17.780Z,18.60
2019-04-10T10:03:44.967Z,18.34
2019-04-10T10:06:23.220Z,18.17
2019-04-10T10:08:41.632Z,18.25
2019-04-10T10:11:09.559Z,18.42
2019-04-10T10:13:37.373Z,18.64
2019-04-10T10:16:04.854Z,18.75
2019-04-10T10:18:31.756Z,18.67
2019-04-10T10:20:59.768Z,18.60
2019-04-10T10:23:27.623Z,18.69
2019-04-10T10:25:55.402Z,18.65
2019-04-10T10:28:22.867Z,18.73
2019-04-10T10:30:50.209Z,18.62
2019-04-10T10:33:17.469Z,18.47
2019-04-10T10:35:44.458Z,18.42
2019-04-10T10:38:11.401Z,18.27
2019-04-10T10:40:39.339Z,18.17
2019-04-10T10:43:07.769Z,18.28
2019-04-10T10:45:34.876Z,18.30
2019-04-10T10:48:01.902Z,18.26
2019-04-10T10:50:29.049Z,18.18
2019-04-10T10:52:56.317Z,18.08
2019-04-10T10:55:23.569Z,18.19
2019-04-10T10:57:51.229Z,18.30
2019-04-10T11:00:19.416Z,18.30
2019-04-10T11:02:46.867Z,18.11
2019-04-10T11:05:13.849Z,18.04
2019-04-10T11:07:41.065Z,18.00
2019-04-10T11:10:08.481Z,17.84
2019-04-10T11:12:35.818Z,17.88
2019-04-10T11:15:03.802Z,17.97
2019-04-10T11:17:31.615Z,17.93
2019-04-10T11:19:59.482Z,17.96
2019-04-10T11:22:26.589Z,18.03
2019-04-10T11:24:53.511Z,17.89
2019-04-10T11:27:20.463Z,17.83
2019-04-10T11:29:47.599Z,17.87
2019-04-10T11:32:14.657Z,17.88
2019-04-10T11:34:42.649Z,17.91
2019-04-10T11:37:23.383Z,18.04
2019-04-10T11:39:43.277Z,18.06
2019-04-10T11:42:09.491Z,17.81
2019-04-10T11:44:36.771Z,17.71
2019-04-10T11:47:06.451Z,17.69
2019-04-10T11:49:33.995Z,17.79
2019-04-10T11:52:03.390Z,17.86
2019-04-10T11:54:32.247Z,17.93
2019-04-10T11:57:02.675Z,18.00
2019-04-10T11:59:28.951Z,18.03
2019-04-10T12:02:00.712Z,18.06
2019-04-10T12:04:29.049Z,17.98
2019-04-10T12:06:57.258Z,17.97
2019-04-10T12:10:16.924Z,17.97
2019-04-10T12:11:53.026Z,17.92
2019-04-10T12:14:20.015Z,17.88
2019-04-10T12:16:47.431Z,17.84
2019-04-10T12:19:15.217Z,17.88
2019-04-10T12:21:42.248Z,17.93
2019-04-10T12:24:09.539Z,18.01
2019-04-10T12:26:36.556Z,18.03
2019-04-10T12:29:04.405Z,18.03
2019-04-10T12:31:33.010Z,18.15
2019-04-10T12:34:01.363Z,18.24
2019-04-10T12:36:28.867Z,18.19
2019-04-10T12:38:56.209Z,18.16
2019-04-10T12:41:23.545Z,18.16
2019-04-10T12:43:51.471Z,18.13
2019-04-10T12:46:19.134Z,17.98
2019-04-10T12:48:47.210Z,17.94
2019-04-10T12:51:14.250Z,18.05
2019-04-10T12:53:41.711Z,18.17
2019-04-10T12:56:08.564Z,18.27
2019-04-10T12:58:37.062Z,18.16
2019-04-10T13:01:04.530Z,18.15
2019-04-10T13:03:31.521Z,18.16
2019-04-10T13:05:58.474Z,18.24
2019-04-10T13:08:35.192Z,18.22
2019-04-10T13:10:54.078Z,18.25
2019-04-10T13:13:22.039Z,18.21
2019-04-10T13:15:54.182Z,18.09
2019-04-10T13:18:21.073Z,17.98
2019-04-10T13:20:48.376Z,17.98
2019-04-10T13:23:17.460Z,18.16
2019-04-10T13:25:55.350Z,18.36
2019-04-10T13:28:12.980Z,18.43
2019-04-10T13:30:48.052Z,18.48
2019-04-10T13:33:10.388Z,18.47
2019-04-10T13:35:37.888Z,18.38
2019-04-10T13:38:05.159Z,18.30
2019-04-10T13:40:32.631Z,18.17
2019-04-10T13:42:59.600Z,18.05
2019-04-10T13:45:27.132Z,18.04
2019-04-10T13:47:54.650Z,17.88
2019-04-10T13:50:22.199Z,17.75
2019-04-10T13:52:51.061Z,17.72
2019-04-10T13:55:19.017Z,17.82
2019-04-10T13:57:46.650Z,17.90
2019-04-10T14:00:13.644Z,17.86
2019-04-10T14:02:41.554Z,17.85
2019-04-10T14:05:08.841Z,17.89
2019-04-10T14:07:36.215Z,18.08
2019-04-10T14:10:03.457Z,18.29
2019-04-10T14:12:31.211Z,18.42
2019-04-10T14:14:59.244Z,18.20
2019-04-10T14:17:26.232Z,18.07
2019-04-10T14:19:54.136Z,17.95
2019-04-10T14:22:21.850Z,17.87
2019-04-10T14:24:50.558Z,17.84
2019-04-10T14:27:18.284Z,17.86
2019-04-10T14:29:45.197Z,17.96
2019-04-10T14:32:13.290Z,18.05
2019-04-10T14:34:40.809Z,18.10
2019-04-10T14:37:07.847Z,18.21
2019-04-10T14:39:35.849Z,18.25
2019-04-10T14:42:02.895Z,18.21
2019-04-10T14:44:30.638Z,18.16
2019-04-10T14:46:58.032Z,18.19
2019-04-10T14:49:27.153Z,18.20
2019-04-10T14:51:54.723Z,18.36
2019-04-10T14:54:23.766Z,18.29
2019-04-10T14:56:50.756Z,18.19
2019-04-10T14:59:17.830Z,18.10
2019-04-10T15:01:44.822Z,18.11
2019-04-10T15:04:12.969Z,18.05
2019-04-10T15:06:40.333Z,18.03
2019-04-10T15:09:17.955Z,18.06
2019-04-10T15:11:36.229Z,18.05
2019-04-10T15:14:03.721Z,18.20
2019-04-10T15:16:31.532Z,18.20
2019-04-10T15:18:58.557Z,18.15
2019-04-10T15:21:25.495Z,18.08
2019-04-10T15:23:53.189Z,18.00
2019-04-10T15:26:20.273Z,17.97
2019-04-10T15:28:47.726Z,18.13
2019-04-10T15:31:15.146Z,18.23
2019-04-10T15:33:42.167Z,17.73
2019-04-10T15:36:09.462Z,18.33
2019-04-10T15:38:38.002Z,18.36
2019-04-10T15:41:06.417Z,18.33
2019-04-10T15:43:33.781Z,18.34
2019-04-10T15:46:02.327Z,18.35
2019-04-10T15:48:29.512Z,18.38
2019-04-10T15:50:58.525Z,18.26
2019-04-10T15:53:26.398Z,18.25
2019-04-10T15:55:53.757Z,18.12
2019-04-10T15:58:21.531Z,18.02
2019-04-10T16:00:50.235Z,17.94
2019-04-10T16:03:19.537Z,17.94
2019-04-10T16:05:50.075Z,18.07
2019-04-10T16:08:20.462Z,18.03
2019-04-10T16:10:49.665Z,17.90
2019-04-10T16:13:19.830Z,17.80
2019-04-10T16:15:47.858Z,17.86
2019-04-10T16:18:15.854Z,17.93
2019-04-10T16:20:43.284Z,17.93
2019-04-10T16:23:12.231Z,17.93
2019-04-10T16:25:40.389Z,18.05
2019-04-10T16:28:08.303Z,18.03
2019-04-10T16:30:35.427Z,18.11
2019-04-10T16:33:02.908Z,18.15
2019-04-10T16:35:32.493Z,18.12
2019-04-10T16:37:58.589Z,18.06
2019-04-10T16:40:26.857Z,18.10
2019-04-10T16:42:55.090Z,18.01
2019-04-10T16:45:22.489Z,17.85
2019-04-10T16:47:50.339Z,17.80
2019-04-10T16:50:17.559Z,17.77
2019-04-10T16:52:45.652Z,17.78
2019-04-10T16:55:12.629Z,17.77
2019-04-10T16:57:39.842Z,17.54
2019-04-10T17:00:07.417Z,17.55
2019-04-10T17:02:36.026Z,17.54
2019-04-10T17:05:03.908Z,17.50
2019-04-10T17:07:31.241Z,17.61
2019-04-10T17:10:12.785Z,17.61
2019-04-10T17:12:27.517Z,17.56
2019-04-10T17:14:55.426Z,17.48
2019-04-10T17:17:22.465Z,17.49
2019-04-10T17:19:55.388Z,17.47
2019-04-10T17:22:30.854Z,17.47
2019-04-10T17:24:49.448Z,17.56
2019-04-10T17:27:16.412Z,17.66
2019-04-10T17:29:45.258Z,17.57
2019-04-10T17:32:17.593Z,17.55
2019-04-10T17:34:42.996Z,17.56
2019-04-10T17:37:10.066Z,17.54
2019-04-10T17:39:39.608Z,17.50
2019-04-10T17:42:08.471Z,17.49
2019-04-10T17:44:38.027Z,17.49
2019-04-10T17:47:07.126Z,17.58
2019-04-10T17:49:33.880Z,17.72
2019-04-10T17:52:03.297Z,17.74
2019-04-10T17:54:31.261Z,17.68
2019-04-10T17:57:02.489Z,17.60
2019-04-10T17:59:30.209Z,17.58
2019-04-10T18:01:58.960Z,17.52
2019-04-10T18:04:26.491Z,17.46
2019-04-10T18:06:53.442Z,17.52
2019-04-10T18:09:21.380Z,17.53
2019-04-10T18:11:48.511Z,17.45
2019-04-10T18:14:15.515Z,17.45
2019-04-10T18:16:42.400Z,17.48
2019-04-10T18:19:10.859Z,17.20
2019-04-10T18:21:39.128Z,17.15
2019-04-10T18:24:06.480Z,17.18
2019-04-10T18:26:34.027Z,17.22
2019-04-10T18:29:02.330Z,17.28
2019-04-10T18:31:29.685Z,17.24
2019-04-10T18:33:56.648Z,17.20
2019-04-10T18:36:24.351Z,17.21
2019-04-10T18:38:52.598Z,17.20
2019-04-10T18:41:20.006Z,17.23
2019-04-10T18:43:46.904Z,17.13
2019-04-10T18:46:17.985Z,17.08
2019-04-10T18:48:45.635Z,17.05
2019-04-10T18:51:12.604Z,17.09
2019-04-10T18:53:39.552Z,16.99
2019-04-10T18:56:07.039Z,16.93
2019-04-10T18:58:34.163Z,16.86
2019-04-10T19:01:01.150Z,16.79
2019-04-10T19:03:29.714Z,16.76
2019-04-10T19:05:58.330Z,16.82
2019-04-10T19:08:26.031Z,16.78
2019-04-10T19:11:08.406Z,16.78
2019-04-10T19:13:22.478Z,16.67
2019-04-10T19:15:50.563Z,16.59
2019-04-10T19:18:17.809Z,16.57
2019-04-10T19:20:45.042Z,16.51
2019-04-10T19:23:14.980Z,16.41
2019-04-10T19:25:45.572Z,16.27
2019-04-10T19:28:12.961Z,16.22
2019-04-10T19:30:39.939Z,16.13
2019-04-10T19:33:08.389Z,16.07
2019-04-10T19:35:35.776Z,16.13
2019-04-10T19:38:03.128Z,16.27
2019-04-10T19:40:31.896Z,16.39
2019-04-10T19:42:59.959Z,16.50
2019-04-10T19:45:27.963Z,16.57
2019-04-10T19:47:54.997Z,16.56
2019-04-10T19:50:21.880Z,16.51
2019-04-10T19:52:49.096Z,16.47
2019-04-10T19:55:16.073Z,16.40
2019-04-10T19:57:43.639Z,16.38
2019-04-10T20:00:11.091Z,16.33
2019-04-10T20:02:40.058Z,16.35
2019-04-10T20:05:07.423Z,16.32
2019-04-10T20:07:35.268Z,16.31
2019-04-10T20:10:03.723Z,16.26
2019-04-10T20:12:32.990Z,16.19
2019-04-10T20:15:02.452Z,16.11
2019-04-10T20:17:30.268Z,16.06
2019-04-10T20:19:58.809Z,16.09
2019-04-10T20:22:27.961Z,16.16
2019-04-10T20:24:54.774Z,16.06
2019-04-10T20:27:23.681Z,16.08
2019-04-10T20:29:51.110Z,16.03
2019-04-10T20:32:18.294Z,15.93
2019-04-10T20:34:45.449Z,15.77
2019-04-10T20:37:13.040Z,15.62
2019-04-10T20:39:41.266Z,15.43
2019-04-10T20:42:09.809Z,15.32
2019-04-10T20:44:36.948Z,15.21
2019-04-10T20:47:04.222Z,15.15
2019-04-10T20:49:31.464Z,15.17
2019-04-10T20:51:58.358Z,15.13
2019-04-10T20:54:25.883Z,15.16
2019-04-10T20:56:53.124Z,15.06
2019-04-10T20:59:20.440Z,15.07
2019-04-10T21:01:47.740Z,15.12
2019-04-10T21:04:15.101Z,15.13
2019-04-10T21:06:43.595Z,15.11
2019-04-10T21:09:11.718Z,15.05
2019-04-10T21:11:39.913Z,14.98
2019-04-10T21:14:07.265Z,14.93
2019-04-10T21:16:34.253Z,14.96
2019-04-10T21:19:02.374Z,15.02
2019-04-10T21:21:30.720Z,15.10
2019-04-10T21:23:57.858Z,14.99
2019-04-10T21:26:25.181Z,14.98
2019-04-10T21:28:52.119Z,14.85
2019-04-10T21:31:19.002Z,14.62
2019-04-10T21:33:46.948Z,14.60
2019-04-10T21:36:14.408Z,14.73
2019-04-10T21:38:41.359Z,14.75
2019-04-10T21:41:10.802Z,14.73
2019-04-10T21:43:37.202Z,14.66
2019-04-10T21:46:04.065Z,14.52
2019-04-10T21:48:31.051Z,14.38
2019-04-10T21:50:58.236Z,14.41
2019-04-10T21:53:25.469Z,14.42
2019-04-10T21:55:53.576Z,14.57
2019-04-10T21:58:20.608Z,14.60
2019-04-10T22:00:49.037Z,14.58
2019-04-10T22:03:16.899Z,14.59
2019-04-10T22:05:44.543Z,14.59
2019-04-10T22:08:12.573Z,14.55
2019-04-10T22:10:39.909Z,14.48
2019-04-10T22:13:07.802Z,14.55
2019-04-10T22:15:35.167Z,14.49
2019-04-10T22:18:03.741Z,14.42
2019-04-10T22:20:31.759Z,14.31
2019-04-10T22:22:59.804Z,14.34
2019-04-10T22:25:27.714Z,14.33
2019-04-10T22:27:54.720Z,14.30
2019-04-10T22:30:21.720Z,14.35
2019-04-10T22:32:49.287Z,14.38
2019-04-10T22:35:17.512Z,14.36
2019-04-10T22:37:44.461Z,14.33
2019-04-10T22:40:11.681Z,14.34
2019-04-10T22:42:43.030Z,14.35
2019-04-10T22:45:07.220Z,14.28
2019-04-10T22:47:34.170Z,14.32
2019-04-10T22:50:01.131Z,14.35
2019-04-10T22:52:28.390Z,14.19
2019-04-10T22:54:55.371Z,14.25
2019-04-10T22:57:23.090Z,14.27
2019-04-10T22:59:51.177Z,14.23
2019-04-10T23:02:19.315Z,14.15
2019-04-10T23:04:47.116Z,14.22
2019-04-10T23:07:14.536Z,14.25
2019-04-10T23:09:41.526Z,14.28
2019-04-10T23:12:08.461Z,14.28
2019-04-10T23:14:36.600Z,14.16
2019-04-10T23:17:04.253Z,14.15
2019-04-10T23:19:31.284Z,14.13
2019-04-10T23:21:58.213Z,14.19
2019-04-10T23:24:25.194Z,14.22
2019-04-10T23:26:53.311Z,14.19
2019-04-10T23:29:20.333Z,14.13
2019-04-10T23:31:48.002Z,14.13
2019-04-10T23:34:15.061Z,14.15
2019-04-10T23:36:42.410Z,14.14
2019-04-10T23:39:10.088Z,14.20
2019-04-10T23:41:37.901Z,14.13
2019-04-10T23:44:05.067Z,14.00
2019-04-10T23:46:32.574Z,13.96
2019-04-10T23:48:59.605Z,14.00
2019-04-10T23:51:27.330Z,13.98
2019-04-10T23:53:55.099Z,14.00
2019-04-10T23:56:22.152Z,14.10
2019-04-10T23:58:50.760Z,14.18
